sensor_id;sensor_type;location;lat;lon;timestamp;P1;durP1;ratioP1;P2;durP2;ratioP2
69714;SDS011;56981;53.532;49.398;2023-06-14T00:01:58;3.58;;;2.00;;
69714;SDS011;56981;53.532;49.398;2023-06-14T00:04:24;4.15;;;1.98;;
69714;SDS011;56981;53.532;49.398;2023-06-14T00:06:50;4.57;;;2.20;;
69714;SDS011;56981;53.532;49.398;2023-06-14T00:09:18;3.58;;;1.73;;
69714;SDS011;56981;53.532;49.398;2023-06-14T00:11:44;4.22;;;2.25;;
69714;SDS011;56981;53.532;49.398;2023-06-14T00:14:10;4.63;;;1.90;;
69714;SDS011;56981;53.532;49.398;2023-06-14T00:16:36;3.17;;;1.75;;
69714;SDS011;56981;53.532;49.398;2023-06-14T00:19:04;3.08;;;2.00;;
69714;SDS011;56981;53.532;49.398;2023-06-14T00:21:30;4.60;;;2.20;;
69714;SDS011;56981;53.532;49.398;2023-06-14T00:24:00;3.50;;;1.52;;
69714;SDS011;56981;53.532;49.398;2023-06-14T00:26:26;3.47;;;2.00;;
69714;SDS011;56981;53.532;49.398;2023-06-14T00:28:53;2.45;;;1.90;;
69714;SDS011;56981;53.532;49.398;2023-06-14T00:31:19;3.25;;;1.90;;
69714;SDS011;56981;53.532;49.398;2023-06-14T00:33:46;3.92;;;1.88;;
69714;SDS011;56981;53.532;49.398;2023-06-14T00:36:12;4.07;;;1.75;;
69714;SDS011;56981;53.532;49.398;2023-06-14T00:38:38;4.57;;;2.05;;
69714;SDS011;56981;53.532;49.398;2023-06-14T00:41:04;3.83;;;2.10;;
69714;SDS011;56981;53.532;49.398;2023-06-14T00:43:30;6.97;;;3.08;;
69714;SDS011;56981;53.532;49.398;2023-06-14T00:45:56;5.18;;;1.95;;
69714;SDS011;56981;53.532;49.398;2023-06-14T00:48:22;3.60;;;2.25;;
69714;SDS011;56981;53.532;49.398;2023-06-14T00:50:50;5.80;;;2.10;;
69714;SDS011;56981;53.532;49.398;2023-06-14T00:53:18;3.83;;;2.28;;
69714;SDS011;56981;53.532;49.398;2023-06-14T00:55:46;3.95;;;2.13;;
69714;SDS011;56981;53.532;49.398;2023-06-14T00:58:12;5.22;;;2.50;;
69714;SDS011;56981;53.532;49.398;2023-06-14T01:00:39;4.47;;;2.22;;
69714;SDS011;56981;53.532;49.398;2023-06-14T01:03:05;7.93;;;2.72;;
69714;SDS011;56981;53.532;49.398;2023-06-14T01:05:32;10.15;;;3.22;;
69714;SDS011;56981;53.532;49.398;2023-06-14T01:10:47;7.28;;;3.10;;
69714;SDS011;56981;53.532;49.398;2023-06-14T01:15:47;10.60;;;2.97;;
69714;SDS011;56981;53.532;49.398;2023-06-14T01:18:14;4.45;;;2.53;;
69714;SDS011;56981;53.532;49.398;2023-06-14T01:20:44;7.40;;;3.22;;
69714;SDS011;56981;53.532;49.398;2023-06-14T01:23:12;6.97;;;2.67;;
69714;SDS011;56981;53.532;49.398;2023-06-14T01:25:38;7.75;;;2.90;;
69714;SDS011;56981;53.532;49.398;2023-06-14T01:28:06;13.98;;;3.22;;
69714;SDS011;56981;53.532;49.398;2023-06-14T01:30:36;6.20;;;2.40;;
69714;SDS011;56981;53.532;49.398;2023-06-14T01:33:04;5.20;;;2.50;;
69714;SDS011;56981;53.532;49.398;2023-06-14T01:35:31;7.65;;;2.40;;
69714;SDS011;56981;53.532;49.398;2023-06-14T01:37:57;4.18;;;2.45;;
69714;SDS011;56981;53.532;49.398;2023-06-14T01:40:24;7.15;;;2.70;;
69714;SDS011;56981;53.532;49.398;2023-06-14T01:42:51;7.53;;;2.33;;
69714;SDS011;56981;53.532;49.398;2023-06-14T01:45:18;5.13;;;2.42;;
69714;SDS011;56981;53.532;49.398;2023-06-14T01:47:45;4.13;;;2.20;;
69714;SDS011;56981;53.532;49.398;2023-06-14T01:50:12;4.63;;;1.90;;
69714;SDS011;56981;53.532;49.398;2023-06-14T01:52:38;3.45;;;1.73;;
69714;SDS011;56981;53.532;49.398;2023-06-14T01:55:05;5.25;;;1.60;;
69714;SDS011;56981;53.532;49.398;2023-06-14T01:57:31;3.70;;;2.08;;
69714;SDS011;56981;53.532;49.398;2023-06-14T01:59:57;4.40;;;2.03;;
69714;SDS011;56981;53.532;49.398;2023-06-14T02:02:23;4.00;;;2.10;;
69714;SDS011;56981;53.532;49.398;2023-06-14T02:04:49;4.72;;;2.40;;
69714;SDS011;56981;53.532;49.398;2023-06-14T02:07:15;3.45;;;2.00;;
69714;SDS011;56981;53.532;49.398;2023-06-14T02:09:41;3.63;;;1.80;;
69714;SDS011;56981;53.532;49.398;2023-06-14T02:12:08;7.28;;;2.35;;
69714;SDS011;56981;53.532;49.398;2023-06-14T02:14:36;3.95;;;2.22;;
69714;SDS011;56981;53.532;49.398;2023-06-14T02:17:03;3.90;;;2.50;;
69714;SDS011;56981;53.532;49.398;2023-06-14T02:19:30;3.90;;;2.00;;
69714;SDS011;56981;53.532;49.398;2023-06-14T02:21:56;2.42;;;1.60;;
69714;SDS011;56981;53.532;49.398;2023-06-14T02:24:22;4.40;;;2.25;;
69714;SDS011;56981;53.532;49.398;2023-06-14T02:26:49;4.85;;;2.10;;
69714;SDS011;56981;53.532;49.398;2023-06-14T02:29:15;3.13;;;2.17;;
69714;SDS011;56981;53.532;49.398;2023-06-14T02:31:41;5.20;;;2.00;;
69714;SDS011;56981;53.532;49.398;2023-06-14T02:34:07;4.07;;;2.72;;
69714;SDS011;56981;53.532;49.398;2023-06-14T02:36:34;6.10;;;3.45;;
69714;SDS011;56981;53.532;49.398;2023-06-14T02:39:09;6.40;;;3.20;;
69714;SDS011;56981;53.532;49.398;2023-06-14T02:41:36;9.25;;;3.80;;
69714;SDS011;56981;53.532;49.398;2023-06-14T02:44:02;10.75;;;4.07;;
69714;SDS011;56981;53.532;49.398;2023-06-14T02:46:28;7.53;;;3.38;;
69714;SDS011;56981;53.532;49.398;2023-06-14T02:48:54;6.47;;;3.25;;
69714;SDS011;56981;53.532;49.398;2023-06-14T02:51:20;5.82;;;2.83;;
69714;SDS011;56981;53.532;49.398;2023-06-14T02:53:46;5.32;;;3.78;;
69714;SDS011;56981;53.532;49.398;2023-06-14T02:56:12;6.75;;;3.60;;
69714;SDS011;56981;53.532;49.398;2023-06-14T02:58:38;7.68;;;4.97;;
69714;SDS011;56981;53.532;49.398;2023-06-14T03:01:06;6.50;;;3.10;;
69714;SDS011;56981;53.532;49.398;2023-06-14T03:03:33;6.43;;;3.53;;
69714;SDS011;56981;53.532;49.398;2023-06-14T03:05:59;6.78;;;3.80;;
69714;SDS011;56981;53.532;49.398;2023-06-14T03:08:33;7.75;;;4.03;;
69714;SDS011;56981;53.532;49.398;2023-06-14T03:11:04;14.60;;;4.38;;
69714;SDS011;56981;53.532;49.398;2023-06-14T03:13:31;11.63;;;4.45;;
69714;SDS011;56981;53.532;49.398;2023-06-14T03:15:57;10.77;;;5.10;;
69714;SDS011;56981;53.532;49.398;2023-06-14T03:18:23;7.75;;;4.35;;
69714;SDS011;56981;53.532;49.398;2023-06-14T03:20:49;22.08;;;10.43;;
69714;SDS011;56981;53.532;49.398;2023-06-14T03:23:17;11.00;;;4.28;;
69714;SDS011;56981;53.532;49.398;2023-06-14T03:25:43;9.13;;;4.45;;
69714;SDS011;56981;53.532;49.398;2023-06-14T03:28:10;7.30;;;4.60;;
69714;SDS011;56981;53.532;49.398;2023-06-14T03:30:36;10.57;;;3.85;;
69714;SDS011;56981;53.532;49.398;2023-06-14T03:33:02;11.10;;;4.25;;
69714;SDS011;56981;53.532;49.398;2023-06-14T03:35:30;9.10;;;4.13;;
69714;SDS011;56981;53.532;49.398;2023-06-14T03:37:56;10.18;;;4.90;;
69714;SDS011;56981;53.532;49.398;2023-06-14T03:40:22;9.48;;;4.57;;
69714;SDS011;56981;53.532;49.398;2023-06-14T03:42:53;9.70;;;3.70;;
69714;SDS011;56981;53.532;49.398;2023-06-14T03:45:20;5.65;;;3.38;;
69714;SDS011;56981;53.532;49.398;2023-06-14T03:47:46;8.27;;;3.70;;
69714;SDS011;56981;53.532;49.398;2023-06-14T03:50:13;5.90;;;3.63;;
69714;SDS011;56981;53.532;49.398;2023-06-14T03:52:39;7.05;;;3.95;;
69714;SDS011;56981;53.532;49.398;2023-06-14T03:55:08;10.60;;;4.38;;
69714;SDS011;56981;53.532;49.398;2023-06-14T03:57:34;9.80;;;4.43;;
69714;SDS011;56981;53.532;49.398;2023-06-14T04:00:00;9.13;;;4.10;;
69714;SDS011;56981;53.532;49.398;2023-06-14T04:02:26;6.32;;;4.45;;
69714;SDS011;56981;53.532;49.398;2023-06-14T04:04:54;9.75;;;4.40;;
69714;SDS011;56981;53.532;49.398;2023-06-14T04:07:20;11.35;;;4.30;;
69714;SDS011;56981;53.532;49.398;2023-06-14T04:09:46;11.80;;;4.47;;
69714;SDS011;56981;53.532;49.398;2023-06-14T04:12:13;9.60;;;4.80;;
69714;SDS011;56981;53.532;49.398;2023-06-14T04:14:39;11.52;;;4.85;;
69714;SDS011;56981;53.532;49.398;2023-06-14T04:17:05;8.38;;;4.55;;
69714;SDS011;56981;53.532;49.398;2023-06-14T04:19:32;10.02;;;5.35;;
69714;SDS011;56981;53.532;49.398;2023-06-14T04:21:58;9.15;;;4.63;;
69714;SDS011;56981;53.532;49.398;2023-06-14T04:24:27;10.45;;;4.65;;
69714;SDS011;56981;53.532;49.398;2023-06-14T04:27:00;6.75;;;4.50;;
69714;SDS011;56981;53.532;49.398;2023-06-14T04:29:26;10.30;;;6.32;;
69714;SDS011;56981;53.532;49.398;2023-06-14T04:31:55;7.00;;;4.65;;
69714;SDS011;56981;53.532;49.398;2023-06-14T04:34:25;6.50;;;3.90;;
69714;SDS011;56981;53.532;49.398;2023-06-14T04:36:55;7.70;;;3.42;;
69714;SDS011;56981;53.532;49.398;2023-06-14T04:39:22;9.35;;;3.95;;
69714;SDS011;56981;53.532;49.398;2023-06-14T04:41:49;5.95;;;3.17;;
69714;SDS011;56981;53.532;49.398;2023-06-14T04:44:22;6.00;;;3.30;;
69714;SDS011;56981;53.532;49.398;2023-06-14T04:46:58;6.80;;;3.72;;
69714;SDS011;56981;53.532;49.398;2023-06-14T04:49:24;5.78;;;3.30;;
69714;SDS011;56981;53.532;49.398;2023-06-14T04:51:52;7.93;;;3.78;;
69714;SDS011;56981;53.532;49.398;2023-06-14T04:54:24;7.80;;;3.67;;
69714;SDS011;56981;53.532;49.398;2023-06-14T04:56:51;6.00;;;3.72;;
69714;SDS011;56981;53.532;49.398;2023-06-14T04:59:18;7.93;;;3.90;;
69714;SDS011;56981;53.532;49.398;2023-06-14T05:01:44;11.57;;;6.13;;
69714;SDS011;56981;53.532;49.398;2023-06-14T05:04:14;5.53;;;4.53;;
69714;SDS011;56981;53.532;49.398;2023-06-14T05:06:43;10.88;;;5.20;;
69714;SDS011;56981;53.532;49.398;2023-06-14T05:09:20;11.10;;;4.88;;
69714;SDS011;56981;53.532;49.398;2023-06-14T05:11:47;10.23;;;5.50;;
69714;SDS011;56981;53.532;49.398;2023-06-14T05:14:13;9.05;;;5.63;;
69714;SDS011;56981;53.532;49.398;2023-06-14T05:16:40;10.65;;;4.70;;
69714;SDS011;56981;53.532;49.398;2023-06-14T05:19:06;8.15;;;4.85;;
69714;SDS011;56981;53.532;49.398;2023-06-14T05:21:32;11.63;;;5.32;;
69714;SDS011;56981;53.532;49.398;2023-06-14T05:24:02;10.73;;;5.40;;
69714;SDS011;56981;53.532;49.398;2023-06-14T05:26:29;11.10;;;5.70;;
69714;SDS011;56981;53.532;49.398;2023-06-14T05:28:55;9.57;;;5.70;;
69714;SDS011;56981;53.532;49.398;2023-06-14T05:31:22;6.20;;;4.20;;
69714;SDS011;56981;53.532;49.398;2023-06-14T05:33:49;7.43;;;4.60;;
69714;SDS011;56981;53.532;49.398;2023-06-14T05:36:16;8.05;;;3.50;;
69714;SDS011;56981;53.532;49.398;2023-06-14T05:38:42;6.93;;;3.35;;
69714;SDS011;56981;53.532;49.398;2023-06-14T05:41:08;5.40;;;3.13;;
69714;SDS011;56981;53.532;49.398;2023-06-14T05:43:34;4.00;;;3.20;;
69714;SDS011;56981;53.532;49.398;2023-06-14T05:46:00;9.60;;;3.30;;
69714;SDS011;56981;53.532;49.398;2023-06-14T05:48:26;3.85;;;3.45;;
69714;SDS011;56981;53.532;49.398;2023-06-14T05:50:52;9.77;;;3.63;;
69714;SDS011;56981;53.532;49.398;2023-06-14T05:53:18;5.18;;;3.50;;
69714;SDS011;56981;53.532;49.398;2023-06-14T05:55:44;6.05;;;3.80;;
69714;SDS011;56981;53.532;49.398;2023-06-14T05:58:10;10.02;;;4.22;;
69714;SDS011;56981;53.532;49.398;2023-06-14T06:00:39;10.05;;;3.92;;
69714;SDS011;56981;53.532;49.398;2023-06-14T06:03:06;6.20;;;3.83;;
69714;SDS011;56981;53.532;49.398;2023-06-14T06:08:02;8.23;;;3.30;;
69714;SDS011;56981;53.532;49.398;2023-06-14T06:10:28;3.47;;;2.95;;
69714;SDS011;56981;53.532;49.398;2023-06-14T06:12:55;5.18;;;3.40;;
69714;SDS011;56981;53.532;49.398;2023-06-14T06:15:21;3.30;;;3.00;;
69714;SDS011;56981;53.532;49.398;2023-06-14T06:17:47;6.18;;;3.90;;
69714;SDS011;56981;53.532;49.398;2023-06-14T06:20:13;8.50;;;3.97;;
69714;SDS011;56981;53.532;49.398;2023-06-14T06:22:39;7.43;;;4.22;;
69714;SDS011;56981;53.532;49.398;2023-06-14T06:25:05;4.25;;;2.80;;
69714;SDS011;56981;53.532;49.398;2023-06-14T06:27:32;4.60;;;2.60;;
69714;SDS011;56981;53.532;49.398;2023-06-14T06:29:58;6.35;;;2.65;;
69714;SDS011;56981;53.532;49.398;2023-06-14T06:32:24;5.03;;;2.65;;
69714;SDS011;56981;53.532;49.398;2023-06-14T06:34:50;5.05;;;2.40;;
69714;SDS011;56981;53.532;49.398;2023-06-14T06:37:17;5.60;;;2.63;;
69714;SDS011;56981;53.532;49.398;2023-06-14T06:39:43;4.80;;;2.75;;
69714;SDS011;56981;53.532;49.398;2023-06-14T06:42:09;4.82;;;2.90;;
69714;SDS011;56981;53.532;49.398;2023-06-14T06:44:36;6.65;;;3.47;;
69714;SDS011;56981;53.532;49.398;2023-06-14T06:47:02;4.28;;;3.05;;
69714;SDS011;56981;53.532;49.398;2023-06-14T06:49:28;6.93;;;3.50;;
69714;SDS011;56981;53.532;49.398;2023-06-14T06:52:01;7.60;;;4.40;;
69714;SDS011;56981;53.532;49.398;2023-06-14T06:54:31;7.65;;;4.00;;
69714;SDS011;56981;53.532;49.398;2023-06-14T06:56:57;7.45;;;4.40;;
69714;SDS011;56981;53.532;49.398;2023-06-14T06:59:24;6.30;;;4.28;;
69714;SDS011;56981;53.532;49.398;2023-06-14T07:01:50;7.55;;;4.10;;
69714;SDS011;56981;53.532;49.398;2023-06-14T07:04:16;8.43;;;4.18;;
69714;SDS011;56981;53.532;49.398;2023-06-14T07:06:42;9.00;;;4.45;;
69714;SDS011;56981;53.532;49.398;2023-06-14T07:09:09;6.13;;;4.20;;
69714;SDS011;56981;53.532;49.398;2023-06-14T07:11:39;6.15;;;4.10;;
69714;SDS011;56981;53.532;49.398;2023-06-14T07:14:06;5.88;;;3.17;;
69714;SDS011;56981;53.532;49.398;2023-06-14T07:16:32;6.63;;;3.47;;
69714;SDS011;56981;53.532;49.398;2023-06-14T07:18:58;6.15;;;4.10;;
69714;SDS011;56981;53.532;49.398;2023-06-14T07:21:26;10.60;;;5.20;;
69714;SDS011;56981;53.532;49.398;2023-06-14T07:23:52;11.15;;;5.38;;
69714;SDS011;56981;53.532;49.398;2023-06-14T07:26:19;7.07;;;3.45;;
69714;SDS011;56981;53.532;49.398;2023-06-14T07:28:45;5.13;;;3.85;;
69714;SDS011;56981;53.532;49.398;2023-06-14T07:31:13;5.72;;;3.55;;
69714;SDS011;56981;53.532;49.398;2023-06-14T07:33:43;6.20;;;3.60;;
69714;SDS011;56981;53.532;49.398;2023-06-14T07:36:09;6.07;;;3.60;;
69714;SDS011;56981;53.532;49.398;2023-06-14T07:38:35;6.38;;;3.85;;
69714;SDS011;56981;53.532;49.398;2023-06-14T07:41:02;7.53;;;3.05;;
69714;SDS011;56981;53.532;49.398;2023-06-14T07:43:28;4.38;;;2.70;;
69714;SDS011;56981;53.532;49.398;2023-06-14T07:45:54;4.85;;;2.63;;
69714;SDS011;56981;53.532;49.398;2023-06-14T07:48:22;5.78;;;3.25;;
69714;SDS011;56981;53.532;49.398;2023-06-14T07:50:48;7.45;;;2.90;;
69714;SDS011;56981;53.532;49.398;2023-06-14T07:53:14;7.40;;;2.50;;
69714;SDS011;56981;53.532;49.398;2023-06-14T07:55:40;5.20;;;2.80;;
69714;SDS011;56981;53.532;49.398;2023-06-14T07:58:08;7.00;;;2.70;;
69714;SDS011;56981;53.532;49.398;2023-06-14T08:00:34;4.22;;;2.58;;
69714;SDS011;56981;53.532;49.398;2023-06-14T08:03:00;5.50;;;2.20;;
69714;SDS011;56981;53.532;49.398;2023-06-14T08:05:27;4.10;;;2.35;;
69714;SDS011;56981;53.532;49.398;2023-06-14T08:07:53;4.78;;;2.70;;
69714;SDS011;56981;53.532;49.398;2023-06-14T08:10:20;5.82;;;2.25;;
69714;SDS011;56981;53.532;49.398;2023-06-14T08:12:47;4.30;;;2.30;;
69714;SDS011;56981;53.532;49.398;2023-06-14T08:15:15;4.82;;;2.80;;
69714;SDS011;56981;53.532;49.398;2023-06-14T08:17:42;10.60;;;3.00;;
69714;SDS011;56981;53.532;49.398;2023-06-14T08:20:10;5.18;;;2.67;;
69714;SDS011;56981;53.532;49.398;2023-06-14T08:22:36;3.83;;;2.60;;
69714;SDS011;56981;53.532;49.398;2023-06-14T08:25:02;7.10;;;2.20;;
69714;SDS011;56981;53.532;49.398;2023-06-14T08:27:29;4.57;;;2.40;;
69714;SDS011;56981;53.532;49.398;2023-06-14T08:29:56;3.58;;;2.35;;
69714;SDS011;56981;53.532;49.398;2023-06-14T08:32:22;11.00;;;3.10;;
69714;SDS011;56981;53.532;49.398;2023-06-14T08:34:48;4.07;;;2.22;;
69714;SDS011;56981;53.532;49.398;2023-06-14T08:37:14;6.50;;;2.63;;
69714;SDS011;56981;53.532;49.398;2023-06-14T08:39:40;3.70;;;2.70;;
69714;SDS011;56981;53.532;49.398;2023-06-14T08:42:07;5.43;;;3.75;;
69714;SDS011;56981;53.532;49.398;2023-06-14T08:44:34;4.32;;;2.42;;
69714;SDS011;56981;53.532;49.398;2023-06-14T08:47:00;6.22;;;2.75;;
69714;SDS011;56981;53.532;49.398;2023-06-14T08:49:28;4.72;;;3.08;;
69714;SDS011;56981;53.532;49.398;2023-06-14T08:51:57;5.35;;;2.38;;
69714;SDS011;56981;53.532;49.398;2023-06-14T08:54:28;5.32;;;2.33;;
69714;SDS011;56981;53.532;49.398;2023-06-14T08:57:02;3.80;;;2.28;;
69714;SDS011;56981;53.532;49.398;2023-06-14T08:59:32;6.78;;;2.30;;
69714;SDS011;56981;53.532;49.398;2023-06-14T09:02:05;3.95;;;2.30;;
69714;SDS011;56981;53.532;49.398;2023-06-14T09:04:32;2.15;;;1.88;;
69714;SDS011;56981;53.532;49.398;2023-06-14T09:06:59;7.30;;;2.00;;
69714;SDS011;56981;53.532;49.398;2023-06-14T09:09:24;3.58;;;2.45;;
69714;SDS011;56981;53.532;49.398;2023-06-14T09:11:54;5.35;;;2.50;;
69714;SDS011;56981;53.532;49.398;2023-06-14T09:14:24;4.78;;;1.90;;
69714;SDS011;56981;53.532;49.398;2023-06-14T09:16:53;2.55;;;1.83;;
69714;SDS011;56981;53.532;49.398;2023-06-14T09:19:23;2.30;;;2.10;;
69714;SDS011;56981;53.532;49.398;2023-06-14T09:21:50;2.42;;;2.20;;
69714;SDS011;56981;53.532;49.398;2023-06-14T09:24:18;2.92;;;1.95;;
69714;SDS011;56981;53.532;49.398;2023-06-14T09:26:48;4.65;;;2.20;;
69714;SDS011;56981;53.532;49.398;2023-06-14T09:29:17;6.43;;;2.03;;
69714;SDS011;56981;53.532;49.398;2023-06-14T09:31:46;4.70;;;1.90;;
69714;SDS011;56981;53.532;49.398;2023-06-14T09:34:12;5.72;;;2.38;;
69714;SDS011;56981;53.532;49.398;2023-06-14T09:36:39;4.65;;;2.13;;
69714;SDS011;56981;53.532;49.398;2023-06-14T09:39:08;4.45;;;2.00;;
69714;SDS011;56981;53.532;49.398;2023-06-14T09:41:38;3.95;;;2.15;;
69714;SDS011;56981;53.532;49.398;2023-06-14T09:44:07;5.72;;;2.67;;
69714;SDS011;56981;53.532;49.398;2023-06-14T09:46:36;3.90;;;2.60;;
69714;SDS011;56981;53.532;49.398;2023-06-14T09:49:03;4.10;;;2.10;;
69714;SDS011;56981;53.532;49.398;2023-06-14T09:51:30;3.60;;;2.30;;
69714;SDS011;56981;53.532;49.398;2023-06-14T09:53:58;2.67;;;2.13;;
69714;SDS011;56981;53.532;49.398;2023-06-14T09:56:27;3.38;;;2.20;;
69714;SDS011;56981;53.532;49.398;2023-06-14T09:58:57;4.25;;;1.80;;
69714;SDS011;56981;53.532;49.398;2023-06-14T10:01:25;4.80;;;3.40;;
69714;SDS011;56981;53.532;49.398;2023-06-14T10:04:06;5.13;;;2.22;;
69714;SDS011;56981;53.532;49.398;2023-06-14T10:06:35;5.20;;;2.40;;
69714;SDS011;56981;53.532;49.398;2023-06-14T10:09:04;4.10;;;2.30;;
69714;SDS011;56981;53.532;49.398;2023-06-14T10:11:34;3.00;;;2.30;;
69714;SDS011;56981;53.532;49.398;2023-06-14T10:14:03;8.70;;;3.25;;
69714;SDS011;56981;53.532;49.398;2023-06-14T10:16:32;3.10;;;2.55;;
69714;SDS011;56981;53.532;49.398;2023-06-14T10:21:49;6.90;;;3.38;;
69714;SDS011;56981;53.532;49.398;2023-06-14T10:24:19;7.47;;;3.97;;
69714;SDS011;56981;53.532;49.398;2023-06-14T10:26:54;8.10;;;3.90;;
69714;SDS011;56981;53.532;49.398;2023-06-14T10:29:22;7.35;;;3.70;;
69714;SDS011;56981;53.532;49.398;2023-06-14T10:31:49;5.88;;;3.53;;
69714;SDS011;56981;53.532;49.398;2023-06-14T10:34:26;10.13;;;4.68;;
69714;SDS011;56981;53.532;49.398;2023-06-14T10:37:00;13.20;;;5.82;;
69714;SDS011;56981;53.532;49.398;2023-06-14T10:39:31;10.82;;;6.82;;
69714;SDS011;56981;53.532;49.398;2023-06-14T10:41:57;10.82;;;5.63;;
69714;SDS011;56981;53.532;49.398;2023-06-14T10:44:31;7.90;;;3.50;;
69714;SDS011;56981;53.532;49.398;2023-06-14T10:47:06;7.57;;;2.35;;
69714;SDS011;56981;53.532;49.398;2023-06-14T10:49:37;3.72;;;2.30;;
69714;SDS011;56981;53.532;49.398;2023-06-14T10:52:08;3.08;;;2.17;;
69714;SDS011;56981;53.532;49.398;2023-06-14T10:55:04;5.55;;;2.55;;
69714;SDS011;56981;53.532;49.398;2023-06-14T10:57:35;5.22;;;2.63;;
69714;SDS011;56981;53.532;49.398;2023-06-14T11:05:49;4.88;;;2.22;;
69714;SDS011;56981;53.532;49.398;2023-06-14T11:11:31;7.60;;;3.50;;
69714;SDS011;56981;53.532;49.398;2023-06-14T11:14:01;6.75;;;2.70;;
69714;SDS011;56981;53.532;49.398;2023-06-14T11:16:28;4.80;;;2.60;;
69714;SDS011;56981;53.532;49.398;2023-06-14T11:18:54;3.10;;;2.25;;
69714;SDS011;56981;53.532;49.398;2023-06-14T11:21:21;4.93;;;2.42;;
69714;SDS011;56981;53.532;49.398;2023-06-14T11:23:50;3.53;;;2.42;;
69714;SDS011;56981;53.532;49.398;2023-06-14T11:26:27;4.35;;;1.95;;
69714;SDS011;56981;53.532;49.398;2023-06-14T11:28:55;3.20;;;2.03;;
69714;SDS011;56981;53.532;49.398;2023-06-14T11:31:22;6.20;;;2.13;;
69714;SDS011;56981;53.532;49.398;2023-06-14T11:33:49;6.35;;;2.35;;
69714;SDS011;56981;53.532;49.398;2023-06-14T11:36:16;4.82;;;2.70;;
69714;SDS011;56981;53.532;49.398;2023-06-14T11:38:42;5.43;;;2.10;;
69714;SDS011;56981;53.532;49.398;2023-06-14T11:41:09;4.20;;;1.83;;
69714;SDS011;56981;53.532;49.398;2023-06-14T11:43:35;4.22;;;1.38;;
69714;SDS011;56981;53.532;49.398;2023-06-14T11:46:02;4.95;;;2.40;;
69714;SDS011;56981;53.532;49.398;2023-06-14T11:48:38;3.47;;;2.40;;
69714;SDS011;56981;53.532;49.398;2023-06-14T11:51:06;2.90;;;2.08;;
69714;SDS011;56981;53.532;49.398;2023-06-14T11:53:32;4.80;;;2.33;;
69714;SDS011;56981;53.532;49.398;2023-06-14T11:55:59;3.70;;;2.30;;
69714;SDS011;56981;53.532;49.398;2023-06-14T11:58:26;3.45;;;3.05;;
69714;SDS011;56981;53.532;49.398;2023-06-14T12:00:53;3.38;;;2.03;;
69714;SDS011;56981;53.532;49.398;2023-06-14T12:03:23;3.88;;;2.20;;
69714;SDS011;56981;53.532;49.398;2023-06-14T12:06:01;6.03;;;2.15;;
69714;SDS011;56981;53.532;49.398;2023-06-14T12:08:33;9.10;;;3.53;;
69714;SDS011;56981;53.532;49.398;2023-06-14T12:11:05;12.35;;;6.70;;
69714;SDS011;56981;53.532;49.398;2023-06-14T12:13:34;8.55;;;3.50;;
69714;SDS011;56981;53.532;49.398;2023-06-14T12:16:03;4.88;;;3.47;;
69714;SDS011;56981;53.532;49.398;2023-06-14T12:18:33;8.65;;;2.75;;
69714;SDS011;56981;53.532;49.398;2023-06-14T12:21:00;5.85;;;3.15;;
69714;SDS011;56981;53.532;49.398;2023-06-14T12:26:14;7.85;;;4.03;;
69714;SDS011;56981;53.532;49.398;2023-06-14T12:28:44;8.77;;;3.58;;
69714;SDS011;56981;53.532;49.398;2023-06-14T12:31:12;6.20;;;2.97;;
69714;SDS011;56981;53.532;49.398;2023-06-14T12:33:39;6.97;;;3.35;;
69714;SDS011;56981;53.532;49.398;2023-06-14T12:36:07;5.93;;;3.20;;
69714;SDS011;56981;53.532;49.398;2023-06-14T12:38:34;4.55;;;2.80;;
69714;SDS011;56981;53.532;49.398;2023-06-14T12:41:01;7.22;;;3.35;;
69714;SDS011;56981;53.532;49.398;2023-06-14T12:43:27;9.30;;;3.92;;
69714;SDS011;56981;53.532;49.398;2023-06-14T12:45:53;6.85;;;2.65;;
69714;SDS011;56981;53.532;49.398;2023-06-14T12:48:20;7.43;;;3.10;;
69714;SDS011;56981;53.532;49.398;2023-06-14T12:50:47;8.23;;;3.78;;
69714;SDS011;56981;53.532;49.398;2023-06-14T12:53:13;5.22;;;3.03;;
69714;SDS011;56981;53.532;49.398;2023-06-14T12:55:40;8.40;;;2.80;;
69714;SDS011;56981;53.532;49.398;2023-06-14T12:58:06;3.28;;;2.70;;
69714;SDS011;56981;53.532;49.398;2023-06-14T13:00:32;3.63;;;2.67;;
69714;SDS011;56981;53.532;49.398;2023-06-14T13:02:58;5.00;;;2.60;;
69714;SDS011;56981;53.532;49.398;2023-06-14T13:05:24;8.63;;;2.88;;
69714;SDS011;56981;53.532;49.398;2023-06-14T13:07:50;6.43;;;3.20;;
69714;SDS011;56981;53.532;49.398;2023-06-14T13:10:17;7.40;;;2.78;;
69714;SDS011;56981;53.532;49.398;2023-06-14T13:12:43;2.88;;;2.15;;
69714;SDS011;56981;53.532;49.398;2023-06-14T13:15:10;4.18;;;2.15;;
69714;SDS011;56981;53.532;49.398;2023-06-14T13:17:36;3.88;;;2.28;;
69714;SDS011;56981;53.532;49.398;2023-06-14T13:20:07;6.05;;;2.28;;
69714;SDS011;56981;53.532;49.398;2023-06-14T13:22:34;9.10;;;3.03;;
69714;SDS011;56981;53.532;49.398;2023-06-14T13:25:00;3.25;;;2.28;;
69714;SDS011;56981;53.532;49.398;2023-06-14T13:27:27;4.55;;;2.65;;
69714;SDS011;56981;53.532;49.398;2023-06-14T13:29:53;7.88;;;3.60;;
69714;SDS011;56981;53.532;49.398;2023-06-14T13:32:20;8.98;;;5.00;;
69714;SDS011;56981;53.532;49.398;2023-06-14T13:34:47;3.58;;;2.50;;
69714;SDS011;56981;53.532;49.398;2023-06-14T13:37:13;3.50;;;2.17;;
69714;SDS011;56981;53.532;49.398;2023-06-14T13:39:40;4.78;;;3.80;;
69714;SDS011;56981;53.532;49.398;2023-06-14T13:42:06;6.85;;;2.92;;
69714;SDS011;56981;53.532;49.398;2023-06-14T13:44:32;5.05;;;2.10;;
69714;SDS011;56981;53.532;49.398;2023-06-14T13:46:59;3.80;;;2.20;;
69714;SDS011;56981;53.532;49.398;2023-06-14T13:49:26;4.80;;;2.70;;
69714;SDS011;56981;53.532;49.398;2023-06-14T13:51:52;6.47;;;2.85;;
69714;SDS011;56981;53.532;49.398;2023-06-14T13:54:21;5.45;;;4.53;;
69714;SDS011;56981;53.532;49.398;2023-06-14T13:56:47;5.50;;;3.25;;
69714;SDS011;56981;53.532;49.398;2023-06-14T13:59:14;4.05;;;2.88;;
69714;SDS011;56981;53.532;49.398;2023-06-14T14:01:41;2.70;;;2.30;;
69714;SDS011;56981;53.532;49.398;2023-06-14T14:04:07;8.55;;;2.47;;
69714;SDS011;56981;53.532;49.398;2023-06-14T14:06:33;3.55;;;2.50;;
69714;SDS011;56981;53.532;49.398;2023-06-14T14:09:00;5.32;;;3.63;;
69714;SDS011;56981;53.532;49.398;2023-06-14T14:11:27;5.85;;;2.55;;
69714;SDS011;56981;53.532;49.398;2023-06-14T14:13:53;6.88;;;3.20;;
69714;SDS011;56981;53.532;49.398;2023-06-14T14:16:20;3.90;;;2.13;;
69714;SDS011;56981;53.532;49.398;2023-06-14T14:18:46;6.60;;;3.03;;
69714;SDS011;56981;53.532;49.398;2023-06-14T14:21:12;6.07;;;2.42;;
69714;SDS011;56981;53.532;49.398;2023-06-14T14:23:38;5.35;;;2.50;;
69714;SDS011;56981;53.532;49.398;2023-06-14T14:26:04;6.45;;;2.53;;
69714;SDS011;56981;53.532;49.398;2023-06-14T14:28:31;4.60;;;2.38;;
69714;SDS011;56981;53.532;49.398;2023-06-14T14:30:59;8.70;;;2.67;;
69714;SDS011;56981;53.532;49.398;2023-06-14T14:33:25;4.95;;;2.50;;
69714;SDS011;56981;53.532;49.398;2023-06-14T14:35:51;8.25;;;2.83;;
69714;SDS011;56981;53.532;49.398;2023-06-14T14:38:17;5.78;;;2.50;;
69714;SDS011;56981;53.532;49.398;2023-06-14T14:40:44;8.00;;;2.30;;
69714;SDS011;56981;53.532;49.398;2023-06-14T14:43:10;6.97;;;3.20;;
69714;SDS011;56981;53.532;49.398;2023-06-14T14:45:37;9.77;;;2.90;;
69714;SDS011;56981;53.532;49.398;2023-06-14T14:48:03;4.65;;;2.97;;
69714;SDS011;56981;53.532;49.398;2023-06-14T14:50:29;5.22;;;2.80;;
69714;SDS011;56981;53.532;49.398;2023-06-14T14:52:55;4.38;;;2.83;;
69714;SDS011;56981;53.532;49.398;2023-06-14T14:55:21;5.90;;;2.80;;
69714;SDS011;56981;53.532;49.398;2023-06-14T14:57:48;17.33;;;8.07;;